createdAt,value
2023-09-06T00:01:06.389Z,4.82
2023-09-06T00:03:37.552Z,4.53
2023-09-06T00:06:06.965Z,3.92
2023-09-06T00:08:36.833Z,5.07
2023-09-06T00:11:08.197Z,4.30
2023-09-06T00:13:38.112Z,4.13
2023-09-06T00:16:08.859Z,4.47
2023-09-06T00:18:39.003Z,4.72
2023-09-06T00:21:07.605Z,3.90
2023-09-06T00:23:37.547Z,4.53
2023-09-06T00:26:06.113Z,4.60
2023-09-06T00:28:34.573Z,4.15
2023-09-06T00:31:03.185Z,4.18
2023-09-06T00:33:34.559Z,3.65
2023-09-06T00:36:05.527Z,4.13
2023-09-06T00:38:34.212Z,4.40
2023-09-06T00:41:04.077Z,4.03
2023-09-06T00:43:32.668Z,5.43
2023-09-06T00:46:07.811Z,5.60
2023-09-06T00:48:37.769Z,4.20
2023-09-06T00:51:08.586Z,5.03
2023-09-06T00:53:37.880Z,5.13
2023-09-06T00:56:10.318Z,4.28
2023-09-06T00:58:39.596Z,4.10
2023-09-06T01:01:08.187Z,4.65
2023-09-06T01:03:37.047Z,4.07
2023-09-06T01:06:11.352Z,4.68
2023-09-06T01:08:47.431Z,3.95
2023-09-06T01:11:23.042Z,4.05
2023-09-06T01:13:53.802Z,4.75
2023-09-06T01:16:30.775Z,4.25
2023-09-06T01:19:00.418Z,4.10
2023-09-06T01:21:36.621Z,4.28
2023-09-06T01:24:08.360Z,4.80
2023-09-06T01:26:37.753Z,4.93
2023-09-06T01:29:06.585Z,5.30
2023-09-06T01:31:35.282Z,4.88
2023-09-06T01:34:03.789Z,4.38
2023-09-06T01:36:32.345Z,5.18
2023-09-06T01:39:00.918Z,4.95
2023-09-06T01:41:30.956Z,5.05
2023-09-06T01:44:01.929Z,6.07
2023-09-06T01:46:30.637Z,4.80
2023-09-06T01:49:00.538Z,4.70
2023-09-06T01:51:29.222Z,5.05
2023-09-06T01:53:57.681Z,5.03
2023-09-06T01:56:26.130Z,4.63
2023-09-06T01:58:56.159Z,5.05
2023-09-06T02:01:24.707Z,5.80
2023-09-06T02:03:53.435Z,4.38
2023-09-06T02:06:22.126Z,5.28
2023-09-06T02:08:50.788Z,5.03
2023-09-06T02:11:19.323Z,5.72
2023-09-06T02:13:47.772Z,6.63
2023-09-06T02:16:19.327Z,5.68
2023-09-06T02:18:47.904Z,5.68
2023-09-06T02:21:16.369Z,5.88
2023-09-06T02:23:45.196Z,6.13
2023-09-06T02:26:13.680Z,5.47
2023-09-06T02:28:42.135Z,5.90
2023-09-06T02:31:10.663Z,5.72
2023-09-06T02:33:41.247Z,6.03
2023-09-06T02:36:09.834Z,5.82
2023-09-06T02:38:38.235Z,5.30
2023-09-06T02:41:06.696Z,7.25
2023-09-06T02:43:35.165Z,6.22
2023-09-06T02:46:04.543Z,6.40
2023-09-06T02:48:34.956Z,6.13
2023-09-06T02:51:09.325Z,6.75
2023-09-06T02:53:44.332Z,6.50
2023-09-06T02:56:15.263Z,5.88
2023-09-06T02:58:44.419Z,6.22
2023-09-06T03:01:21.591Z,6.63
2023-09-06T03:03:52.842Z,5.80
2023-09-06T03:06:33.901Z,6.82
2023-09-06T03:09:07.709Z,5.95
2023-09-06T03:11:36.726Z,5.60
2023-09-06T03:14:06.916Z,6.65
2023-09-06T03:16:40.245Z,5.10
2023-09-06T03:19:11.341Z,6.13
2023-09-06T03:21:41.619Z,5.93
2023-09-06T03:24:13.898Z,6.50
2023-09-06T03:26:45.223Z,6.55
2023-09-06T03:29:16.572Z,6.18
2023-09-06T03:31:45.612Z,6.18
2023-09-06T03:34:16.843Z,5.85
2023-09-06T03:36:52.859Z,4.75
2023-09-06T03:39:21.612Z,5.82
2023-09-06T03:41:50.178Z,5.32
2023-09-06T03:44:19.194Z,4.95
2023-09-06T03:46:48.001Z,5.97
2023-09-06T03:49:16.837Z,5.18
2023-09-06T03:51:46.976Z,5.78
2023-09-06T03:54:18.583Z,6.90
2023-09-06T03:56:47.412Z,7.40
2023-09-06T03:59:16.498Z,5.97
2023-09-06T04:01:45.542Z,6.47
2023-09-06T04:04:15.152Z,6.15
2023-09-06T04:06:44.403Z,6.22
2023-09-06T04:09:15.209Z,6.47
2023-09-06T04:11:43.900Z,6.97
2023-09-06T04:14:12.439Z,6.25
2023-09-06T04:16:41.029Z,6.55
2023-09-06T04:19:10.068Z,7.13
2023-09-06T04:21:41.676Z,6.60
2023-09-06T04:24:10.533Z,7.50
2023-09-06T04:26:40.497Z,6.45
2023-09-06T04:29:09.070Z,6.80
2023-09-06T04:31:37.525Z,7.00
2023-09-06T04:34:06.566Z,6.93
2023-09-06T04:36:38.296Z,6.60
2023-09-06T04:39:09.542Z,7.53
2023-09-06T04:41:39.492Z,6.05
2023-09-06T04:44:08.645Z,5.72
2023-09-06T04:46:37.271Z,5.95
2023-09-06T04:49:05.993Z,6.80
2023-09-06T04:51:34.464Z,6.95
2023-09-06T04:54:03.089Z,6.85
2023-09-06T04:59:02.046Z,8.98
2023-09-06T05:01:30.787Z,7.13
2023-09-06T05:03:59.880Z,6.03
2023-09-06T05:06:28.405Z,7.90
2023-09-06T05:08:56.963Z,6.15
2023-09-06T05:11:25.501Z,7.38
2023-09-06T05:13:54.900Z,6.90
2023-09-06T05:16:24.896Z,7.38
2023-09-06T05:18:54.228Z,6.70
2023-09-06T05:21:22.762Z,8.13
2023-09-06T05:23:51.235Z,7.55
2023-09-06T05:26:19.743Z,7.20
2023-09-06T05:28:50.177Z,7.18
2023-09-06T05:31:20.378Z,7.00
2023-09-06T05:33:50.421Z,9.07
2023-09-06T05:36:18.931Z,7.93
2023-09-06T05:38:47.415Z,7.22
2023-09-06T05:41:16.799Z,9.15
2023-09-06T05:43:46.261Z,7.95
2023-09-06T05:46:30.407Z,7.65
2023-09-06T05:49:03.326Z,7.57
2023-09-06T05:51:31.995Z,7.72
2023-09-06T05:54:01.800Z,8.80
2023-09-06T05:56:30.851Z,7.75
2023-09-06T05:59:01.021Z,8.73
2023-09-06T06:01:29.500Z,10.73
2023-09-06T06:03:57.998Z,7.95
2023-09-06T06:06:28.531Z,8.85
2023-09-06T06:08:56.969Z,7.65
2023-09-06T06:11:27.740Z,7.90
2023-09-06T06:14:09.713Z,7.10
2023-09-06T06:16:41.873Z,7.13
2023-09-06T06:19:12.572Z,6.97
2023-09-06T06:21:42.954Z,7.22
2023-09-06T06:24:11.687Z,7.97
2023-09-06T06:26:40.237Z,8.32
2023-09-06T06:29:08.858Z,10.73
2023-09-06T06:31:37.709Z,7.80
2023-09-06T06:34:06.888Z,8.38
2023-09-06T06:36:35.473Z,8.77
2023-09-06T06:39:06.226Z,7.78
2023-09-06T06:41:33.703Z,8.57
2023-09-06T06:44:02.309Z,8.68
2023-09-06T06:46:33.218Z,7.28
2023-09-06T06:49:05.811Z,7.82
2023-09-06T06:51:43.154Z,8.43
2023-09-06T06:54:15.993Z,9.70
2023-09-06T06:56:45.084Z,7.13
2023-09-06T06:59:14.749Z,7.55
2023-09-06T07:01:43.341Z,7.18
2023-09-06T07:04:12.413Z,7.57
2023-09-06T07:06:40.992Z,7.35
2023-09-06T07:09:11.894Z,6.40
2023-09-06T07:11:41.949Z,6.60
2023-09-06T07:14:10.541Z,6.68
2023-09-06T07:16:41.047Z,7.30
2023-09-06T07:19:09.771Z,6.75
2023-09-06T07:21:38.297Z,7.30
2023-09-06T07:24:07.492Z,7.55
2023-09-06T07:26:36.030Z,7.22
2023-09-06T07:29:06.141Z,6.10
2023-09-06T07:31:34.997Z,6.22
2023-09-06T07:34:05.220Z,7.20
2023-09-06T07:36:33.812Z,6.30
2023-09-06T07:39:02.354Z,6.68
2023-09-06T07:41:30.908Z,7.00
2023-09-06T07:43:59.447Z,6.55
2023-09-06T07:46:31.036Z,6.45
2023-09-06T07:48:59.973Z,7.22
2023-09-06T07:51:28.708Z,5.55
2023-09-06T07:53:57.652Z,6.43
2023-09-06T07:56:26.301Z,7.25
2023-09-06T07:58:55.082Z,6.75
2023-09-06T08:01:24.207Z,6.65
2023-09-06T08:03:54.254Z,6.55
2023-09-06T08:06:22.842Z,6.68
2023-09-06T08:08:51.380Z,11.80
2023-09-06T08:11:20.113Z,9.75
2023-09-06T08:13:48.663Z,11.38
2023-09-06T08:16:17.841Z,10.70
2023-09-06T08:18:47.829Z,9.23
2023-09-06T08:21:17.971Z,8.07
2023-09-06T08:23:46.618Z,8.38
2023-09-06T08:26:15.250Z,23.38
2023-09-06T08:28:43.752Z,8.93
2023-09-06T08:31:12.473Z,6.90
2023-09-06T08:33:41.329Z,6.93
2023-09-06T08:36:09.997Z,6.05
2023-09-06T08:38:40.456Z,7.80
2023-09-06T08:41:09.956Z,5.72
2023-09-06T08:43:43.544Z,5.95
2023-09-06T08:46:20.983Z,5.57
2023-09-06T08:48:50.746Z,6.32
2023-09-06T08:51:21.976Z,6.78
2023-09-06T08:53:52.323Z,5.13
2023-09-06T08:56:21.601Z,5.13
2023-09-06T08:58:50.074Z,5.68
2023-09-06T09:01:18.916Z,5.95
2023-09-06T09:03:47.750Z,4.25
2023-09-06T09:06:16.534Z,5.45
2023-09-06T09:08:45.135Z,5.93
2023-09-06T09:11:17.611Z,4.68
2023-09-06T09:13:46.747Z,4.80
2023-09-06T09:16:17.827Z,7.50
2023-09-06T09:18:48.724Z,6.30
2023-09-06T09:21:17.752Z,4.90
2023-09-06T09:23:48.144Z,4.53
2023-09-06T09:26:21.271Z,4.38
2023-09-06T09:28:50.108Z,4.28
2023-09-06T09:31:19.085Z,4.28
2023-09-06T09:33:53.309Z,3.15
2023-09-06T09:36:22.326Z,3.00
2023-09-06T09:38:51.621Z,3.85
2023-09-06T09:41:22.442Z,3.60
2023-09-06T09:43:50.999Z,3.75
2023-09-06T09:46:30.640Z,3.75
2023-09-06T09:49:02.659Z,3.58
2023-09-06T09:51:35.384Z,3.95
2023-09-06T09:54:05.182Z,3.30
2023-09-06T09:56:39.614Z,3.28
2023-09-06T09:59:09.596Z,3.28
2023-09-06T10:01:40.835Z,3.28
2023-09-06T10:04:13.793Z,4.40
2023-09-06T10:06:43.182Z,3.10
2023-09-06T10:09:14.170Z,3.78
2023-09-06T10:11:44.874Z,3.55
2023-09-06T10:14:14.621Z,3.22
2023-09-06T10:16:43.185Z,3.25
2023-09-06T10:19:13.308Z,3.40
2023-09-06T10:21:43.313Z,3.35
2023-09-06T10:24:20.144Z,3.50
2023-09-06T10:26:54.873Z,3.58
2023-09-06T10:29:27.004Z,2.90
2023-09-06T10:31:55.874Z,3.20
2023-09-06T10:34:24.916Z,3.25
2023-09-06T10:36:58.429Z,3.33
2023-09-06T10:39:30.346Z,3.85
2023-09-06T10:42:33.528Z,3.88
2023-09-06T10:45:16.625Z,3.53
2023-09-06T10:47:45.418Z,2.95
2023-09-06T10:50:18.852Z,3.47
2023-09-06T10:52:51.593Z,3.20
2023-09-06T10:55:23.104Z,3.15
2023-09-06T10:58:07.705Z,3.03
2023-09-06T11:00:36.499Z,3.53
2023-09-06T11:03:15.055Z,3.30
2023-09-06T11:05:47.324Z,3.38
2023-09-06T11:08:33.976Z,3.10
2023-09-06T11:11:14.030Z,3.40
2023-09-06T11:13:47.070Z,3.55
2023-09-06T11:16:17.866Z,3.17
2023-09-06T11:18:48.596Z,3.45
2023-09-06T11:21:21.477Z,3.72
2023-09-06T11:23:51.815Z,3.47
2023-09-06T11:26:21.853Z,3.80
2023-09-06T11:29:05.062Z,3.58
2023-09-06T11:31:34.869Z,3.90
2023-09-06T11:34:10.601Z,3.38
2023-09-06T11:36:39.536Z,3.22
2023-09-06T11:39:17.441Z,3.63
2023-09-06T11:41:47.007Z,3.72
2023-09-06T11:44:20.407Z,3.20
2023-09-06T11:46:50.109Z,3.72
2023-09-06T11:49:22.679Z,3.85
2023-09-06T11:51:55.241Z,3.47
2023-09-06T11:54:28.430Z,3.33
2023-09-06T11:56:58.839Z,3.83
2023-09-06T11:59:33.009Z,3.80
2023-09-06T12:02:02.709Z,3.85
2023-09-06T12:04:33.457Z,3.90
2023-09-06T12:07:04.070Z,3.67
2023-09-06T12:09:34.205Z,4.13
2023-09-06T12:12:06.174Z,4.15
2023-09-06T12:14:36.334Z,3.08
2023-09-06T12:17:06.489Z,3.95
2023-09-06T12:19:36.262Z,3.05
2023-09-06T12:22:06.600Z,3.10
2023-09-06T12:24:35.646Z,3.67
2023-09-06T12:27:04.978Z,3.90
2023-09-06T12:29:33.588Z,3.65
2023-09-06T12:32:06.059Z,3.42
2023-09-06T12:34:34.760Z,3.92
2023-09-06T12:37:04.029Z,3.30
2023-09-06T12:39:32.582Z,3.20
2023-09-06T12:42:01.123Z,3.50
2023-09-06T12:44:29.733Z,3.63
2023-09-06T12:46:58.349Z,4.10
2023-09-06T12:49:28.210Z,3.47
2023-09-06T12:51:56.669Z,3.42
2023-09-06T12:54:25.315Z,3.10
2023-09-06T12:56:53.893Z,3.95
2023-09-06T12:59:22.477Z,4.05
2023-09-06T13:01:51.697Z,3.25
2023-09-06T13:04:20.321Z,3.15
2023-09-06T13:06:50.258Z,3.15
2023-09-06T13:09:19.376Z,3.78
2023-09-06T13:11:47.901Z,3.45
2023-09-06T13:14:16.558Z,3.80
2023-09-06T13:16:45.159Z,3.90
2023-09-06T13:19:16.151Z,3.13
2023-09-06T13:21:45.764Z,3.22
2023-09-06T13:24:17.637Z,3.80
2023-09-06T13:26:48.101Z,4.32
2023-09-06T13:29:16.778Z,3.42
2023-09-06T13:31:45.586Z,3.63
2023-09-06T13:34:14.248Z,3.15
2023-09-06T13:36:42.794Z,3.20
2023-09-06T13:39:12.225Z,3.17
2023-09-06T13:41:44.202Z,3.70
2023-09-06T13:44:12.889Z,3.45
2023-09-06T13:46:41.615Z,3.58
2023-09-06T13:49:10.479Z,3.30
2023-09-06T13:51:39.807Z,3.42
2023-09-06T13:54:08.999Z,3.78
2023-09-06T13:56:37.592Z,3.88
2023-09-06T13:59:08.455Z,3.50
2023-09-06T14:01:37.025Z,3.70
2023-09-06T14:04:06.254Z,3.47
2023-09-06T14:06:34.859Z,3.60
2023-09-06T14:09:03.838Z,2.90
2023-09-06T14:11:32.447Z,3.10
2023-09-06T14:14:00.974Z,3.22
2023-09-06T14:16:32.190Z,3.10
2023-09-06T14:19:00.801Z,2.50
2023-09-06T14:21:29.861Z,3.55
2023-09-06T14:23:58.386Z,3.65
2023-09-06T14:26:27.593Z,2.90
2023-09-06T14:28:56.870Z,3.03
2023-09-06T14:31:25.498Z,3.33
2023-09-06T14:33:55.732Z,3.63
2023-09-06T14:36:24.209Z,3.97
2023-09-06T14:38:55.455Z,2.85
2023-09-06T14:41:25.776Z,3.15
2023-09-06T14:43:56.196Z,3.08
2023-09-06T14:46:24.885Z,3.15
2023-09-06T14:48:55.031Z,3.42
2023-09-06T14:51:25.449Z,2.83
2023-09-06T14:53:54.062Z,3.45
2023-09-06T14:56:22.640Z,3.10
2023-09-06T14:58:51.254Z,2.88
2023-09-06T15:01:23.029Z,2.55
2023-09-06T15:03:52.319Z,3.45
2023-09-06T15:06:22.945Z,3.45
2023-09-06T15:08:57.529Z,2.83
2023-09-06T15:11:29.267Z,2.95
2023-09-06T15:13:58.303Z,2.75
2023-09-06T15:16:28.132Z,3.15
2023-09-06T15:18:57.467Z,3.05
2023-09-06T15:21:28.398Z,3.10
2023-09-06T15:23:58.138Z,2.95
2023-09-06T15:26:27.089Z,3.05
2023-09-06T15:28:57.163Z,6.85
2023-09-06T15:31:29.417Z,4.70
2023-09-06T15:33:59.632Z,3.08
2023-09-06T15:36:32.024Z,3.55
2023-09-06T15:39:01.202Z,4.13
2023-09-06T15:41:33.920Z,3.00
2023-09-06T15:44:06.296Z,3.78
2023-09-06T15:46:37.666Z,3.65
2023-09-06T15:49:07.575Z,3.20
2023-09-06T15:51:37.683Z,2.72
2023-09-06T15:54:06.970Z,3.05
2023-09-06T15:56:36.029Z,3.78
2023-09-06T15:59:05.866Z,4.97
2023-09-06T16:01:35.540Z,3.55
2023-09-06T16:04:05.945Z,3.90
2023-09-06T16:06:36.349Z,3.80
2023-09-06T16:09:09.912Z,3.22
2023-09-06T16:11:39.206Z,3.40
2023-09-06T16:14:09.094Z,3.78
2023-09-06T16:16:40.959Z,3.63
2023-09-06T16:19:12.871Z,5.90
2023-09-06T16:21:43.859Z,4.07
2023-09-06T16:24:18.804Z,3.28
2023-09-06T16:26:59.551Z,2.75
2023-09-06T16:29:29.419Z,4.30
2023-09-06T16:32:01.658Z,3.45
2023-09-06T16:34:38.108Z,3.63
2023-09-06T16:37:10.744Z,3.05
2023-09-06T16:39:41.773Z,3.70
2023-09-06T16:42:12.022Z,4.78
2023-09-06T16:44:42.981Z,3.47
2023-09-06T16:47:13.456Z,3.88
2023-09-06T16:49:45.669Z,3.80
2023-09-06T16:52:18.221Z,3.45
2023-09-06T16:54:47.386Z,3.33
2023-09-06T16:57:17.681Z,3.80
2023-09-06T16:59:48.115Z,3.65
2023-09-06T17:02:17.297Z,3.45
2023-09-06T17:04:48.228Z,4.10
2023-09-06T17:07:20.160Z,3.55
2023-09-06T17:09:51.149Z,4.38
2023-09-06T17:12:22.199Z,3.78
2023-09-06T17:14:51.517Z,3.70
2023-09-06T17:17:21.930Z,4.10
2023-09-06T17:19:52.082Z,4.03
2023-09-06T17:22:23.064Z,4.78
2023-09-06T17:24:52.684Z,4.20
2023-09-06T17:27:22.505Z,4.35
2023-09-06T17:29:52.318Z,4.47
2023-09-06T17:32:23.250Z,3.80
2023-09-06T17:34:53.218Z,4.03
2023-09-06T17:37:23.331Z,4.07
2023-09-06T17:39:54.088Z,3.85
2023-09-06T17:42:23.716Z,3.45
2023-09-06T17:44:59.875Z,4.03
2023-09-06T17:47:31.152Z,3.92
2023-09-06T17:50:02.014Z,4.47
2023-09-06T17:52:33.418Z,4.75
2023-09-06T17:55:01.992Z,4.55
2023-09-06T17:57:32.553Z,4.38
2023-09-06T18:00:02.506Z,4.18
2023-09-06T18:02:33.940Z,4.18
2023-09-06T18:05:04.118Z,4.90
2023-09-06T18:07:39.113Z,4.00
2023-09-06T18:10:11.132Z,4.43
2023-09-06T18:12:43.366Z,4.10
2023-09-06T18:15:18.632Z,4.15
2023-09-06T18:17:52.706Z,3.90
2023-09-06T18:20:22.945Z,4.25
2023-09-06T18:22:55.116Z,6.10
2023-09-06T18:25:28.105Z,9.15
2023-09-06T18:27:57.659Z,5.03
2023-09-06T18:30:29.489Z,4.80
2023-09-06T18:33:02.353Z,5.03
2023-09-06T18:35:31.001Z,4.35
2023-09-06T18:38:06.772Z,4.40
2023-09-06T18:40:37.005Z,4.75
2023-09-06T18:43:11.154Z,4.45
2023-09-06T18:45:45.512Z,4.40
2023-09-06T18:48:24.394Z,3.85
2023-09-06T18:50:56.046Z,4.07
2023-09-06T18:53:28.785Z,4.95
2023-09-06T18:55:59.961Z,4.35
2023-09-06T18:58:31.074Z,4.50
2023-09-06T19:01:01.761Z,4.40
2023-09-06T19:03:31.764Z,4.53
2023-09-06T19:06:03.508Z,3.67
2023-09-06T19:08:39.127Z,3.70
2023-09-06T19:11:11.503Z,4.32
2023-09-06T19:13:44.465Z,4.72
2023-09-06T19:16:19.766Z,4.95
2023-09-06T19:18:49.722Z,4.00
2023-09-06T19:21:22.689Z,3.75
2023-09-06T19:23:55.545Z,4.00
2023-09-06T19:26:28.722Z,4.55
2023-09-06T19:28:59.157Z,3.80
2023-09-06T19:31:35.083Z,4.10
2023-09-06T19:34:07.168Z,3.85
2023-09-06T19:36:38.252Z,3.80
2023-09-06T19:39:12.547Z,4.10
2023-09-06T19:41:44.910Z,4.10
2023-09-06T19:44:16.060Z,3.55
2023-09-06T19:46:47.262Z,3.63
2023-09-06T19:49:19.204Z,3.83
2023-09-06T19:51:50.104Z,4.28
2023-09-06T19:54:34.956Z,3.88
2023-09-06T19:57:07.464Z,3.80
2023-09-06T19:59:37.749Z,4.03
2023-09-06T20:02:09.505Z,4.45
2023-09-06T20:04:41.600Z,4.88
2023-09-06T20:07:11.760Z,4.93
2023-09-06T20:09:43.465Z,5.10
2023-09-06T20:12:13.487Z,5.20
2023-09-06T20:14:45.577Z,5.20
2023-09-06T20:17:19.208Z,5.80
2023-09-06T20:19:51.435Z,6.50
2023-09-06T20:22:21.183Z,6.07
2023-09-06T20:24:52.026Z,5.22
2023-09-06T20:27:22.052Z,7.20
2023-09-06T20:29:53.354Z,8.02
2023-09-06T20:32:22.742Z,8.13
2023-09-06T20:34:54.530Z,8.63
2023-09-06T20:37:27.872Z,8.15
2023-09-06T20:39:58.408Z,9.32
2023-09-06T20:42:28.964Z,8.73
2023-09-06T20:44:59.527Z,9.30
2023-09-06T20:47:29.416Z,8.25
2023-09-06T20:49:59.929Z,8.13
2023-09-06T20:52:30.006Z,7.95
2023-09-06T20:55:02.254Z,7.47
2023-09-06T20:57:31.809Z,6.38
2023-09-06T21:00:01.579Z,6.75
2023-09-06T21:02:30.369Z,6.80
2023-09-06T21:04:59.144Z,6.38
2023-09-06T21:07:27.717Z,5.30
2023-09-06T21:09:56.163Z,6.00
2023-09-06T21:12:26.304Z,5.47
2023-09-06T21:14:54.858Z,6.70
2023-09-06T21:17:23.462Z,6.95
2023-09-06T21:19:52.136Z,6.82
2023-09-06T21:22:20.676Z,8.60
2023-09-06T21:24:49.101Z,8.13
2023-09-06T21:27:17.635Z,8.30
2023-09-06T21:29:47.857Z,7.60
2023-09-06T21:32:16.348Z,8.57
2023-09-06T21:34:44.935Z,7.93
2023-09-06T21:37:13.595Z,7.93
2023-09-06T21:39:42.382Z,8.57
2023-09-06T21:42:11.095Z,7.57
2023-09-06T21:44:40.295Z,7.80
2023-09-06T21:47:10.319Z,8.55
2023-09-06T21:49:38.908Z,7.75
2023-09-06T21:52:07.733Z,8.57
2023-09-06T21:54:36.319Z,7.93
2023-09-06T21:57:05.668Z,7.72
2023-09-06T21:59:35.322Z,8.63
2023-09-06T22:02:04.101Z,9.60
2023-09-06T22:04:34.117Z,8.52
2023-09-06T22:07:02.707Z,7.65
2023-09-06T22:09:31.293Z,8.13
2023-09-06T22:11:59.897Z,7.15
2023-09-06T22:14:28.464Z,7.93
2023-09-06T22:16:57.038Z,8.55
2023-09-06T22:19:25.527Z,8.68
2023-09-06T22:21:55.553Z,8.43
2023-09-06T22:24:24.164Z,6.78
2023-09-06T22:26:52.677Z,7.72
2023-09-06T22:29:21.179Z,6.18
2023-09-06T22:31:49.829Z,6.90
2023-09-06T22:34:19.835Z,6.88
2023-09-06T22:36:48.566Z,5.68
2023-09-06T22:39:18.500Z,6.65
2023-09-06T22:41:47.058Z,6.05
2023-09-06T22:44:15.491Z,6.70
2023-09-06T22:46:44.112Z,6.05
2023-09-06T22:49:12.627Z,6.32
2023-09-06T22:51:43.444Z,6.40
2023-09-06T22:54:12.444Z,5.80
2023-09-06T22:56:45.275Z,6.38
2023-09-06T22:59:15.017Z,5.65
2023-09-06T23:01:44.149Z,5.97
2023-09-06T23:04:13.019Z,5.95
2023-09-06T23:06:41.534Z,6.20
2023-09-06T23:09:12.290Z,6.95
2023-09-06T23:11:51.459Z,6.38
2023-09-06T23:14:21.555Z,7.70
2023-09-06T23:16:51.317Z,7.85
2023-09-06T23:19:25.463Z,7.40
2023-09-06T23:21:58.311Z,7.32
2023-09-06T23:24:29.057Z,6.88
2023-09-06T23:27:00.515Z,7.00
2023-09-06T23:29:31.527Z,7.25
2023-09-06T23:32:00.549Z,7.43
2023-09-06T23:34:31.579Z,7.18
2023-09-06T23:37:00.978Z,7.20
2023-09-06T23:39:29.756Z,6.68
2023-09-06T23:42:08.820Z,7.80
2023-09-06T23:44:37.434Z,8.38
2023-09-06T23:47:07.846Z,8.02
2023-09-06T23:49:37.449Z,6.57
2023-09-06T23:52:07.030Z,5.85
2023-09-06T23:54:46.381Z,5.95
2023-09-06T23:57:19.118Z,4.63
2023-09-06T23:59:48.579Z,5.15
